createdAt,value
2019-02-26T00:03:19.880Z,0.70
2019-02-26T00:08:05.888Z,0.50
2019-02-26T00:12:51.614Z,0.30
2019-02-26T00:17:40.550Z,1.00
2019-02-26T00:22:24.692Z,0.60
2019-02-26T00:27:10.450Z,0.50
2019-02-26T00:31:57.682Z,0.20
2019-02-26T00:36:43.459Z,0.20
2019-02-26T00:41:30.851Z,0.20
2019-02-26T00:46:16.477Z,0.00
2019-02-26T00:51:03.121Z,0.20
2019-02-26T00:55:49.028Z,0.30
2019-02-26T01:00:35.482Z,0.00
2019-02-26T01:05:21.250Z,-0.10
2019-02-26T01:10:07.837Z,-0.30
2019-02-26T01:14:53.551Z,-0.40
2019-02-26T01:19:40.713Z,-0.10
2019-02-26T01:24:28.167Z,-0.50
2019-02-26T01:29:18.589Z,-0.30
2019-02-26T01:34:01.494Z,0.00
2019-02-26T01:38:49.278Z,-0.30
2019-02-26T01:43:34.556Z,-0.60
2019-02-26T01:48:20.233Z,-0.60
2019-02-26T01:53:06.011Z,-0.40
2019-02-26T01:57:51.728Z,-0.20
2019-02-26T02:02:37.511Z,-0.20
2019-02-26T02:07:24.268Z,-0.20
2019-02-26T02:12:11.026Z,-0.40
2019-02-26T02:16:57.029Z,-0.60
2019-02-26T02:21:43.110Z,-0.50
2019-02-26T02:26:28.884Z,-0.30
2019-02-26T02:31:14.586Z,0.10
2019-02-26T02:36:00.313Z,0.50
2019-02-26T02:40:46.949Z,1.30
2019-02-26T02:45:33.344Z,1.70
2019-02-26T02:50:19.039Z,1.30
2019-02-26T02:55:06.784Z,0.80
2019-02-26T02:59:54.473Z,0.40
2019-02-26T03:04:39.926Z,0.10
2019-02-26T03:09:25.667Z,-0.30
2019-02-26T03:14:13.368Z,-0.50
2019-02-26T03:18:58.647Z,-0.80
2019-02-26T03:23:45.594Z,-1.10
2019-02-26T03:28:34.849Z,-1.30
2019-02-26T03:33:18.665Z,-1.40
2019-02-26T03:38:04.390Z,-1.60
2019-02-26T03:42:50.105Z,-1.60
2019-02-26T03:47:39.999Z,-1.60
2019-02-26T03:52:23.149Z,-1.50
2019-02-26T03:57:11.315Z,-1.20
2019-02-26T04:01:56.663Z,-1.20
2019-02-26T04:06:45.855Z,-1.40
2019-02-26T04:11:29.755Z,-1.60
2019-02-26T04:16:15.417Z,-1.50
2019-02-26T04:21:05.713Z,-1.70
2019-02-26T04:26:34.429Z,-1.30
2019-02-26T04:31:54.771Z,-0.90
2019-02-26T04:36:53.679Z,-0.70
2019-02-26T04:41:50.271Z,-1.10
2019-02-26T04:46:46.873Z,-1.20
2019-02-26T04:51:34.245Z,-1.40
2019-02-26T04:56:19.944Z,-1.20
2019-02-26T05:01:08.016Z,-1.30
2019-02-26T05:05:56.293Z,-1.20
2019-02-26T05:10:41.161Z,-1.20
2019-02-26T05:15:30.025Z,-1.40
2019-02-26T05:20:16.536Z,-1.70
2019-02-26T05:25:01.765Z,-1.80
2019-02-26T05:29:49.025Z,-1.50
2019-02-26T05:34:34.819Z,-1.30
2019-02-26T05:39:21.714Z,-1.40
2019-02-26T05:44:10.559Z,-1.70
2019-02-26T05:48:55.376Z,-2.00
2019-02-26T05:53:41.292Z,-2.00
2019-02-26T05:58:27.327Z,-1.70
2019-02-26T06:03:16.318Z,-1.40
2019-02-26T06:08:00.528Z,-1.50
2019-02-26T06:12:46.857Z,-1.60
2019-02-26T06:17:35.244Z,-2.00
2019-02-26T06:22:21.383Z,-2.00
2019-02-26T06:27:10.810Z,-2.00
2019-02-26T06:31:58.016Z,-2.10
2019-02-26T06:36:44.324Z,-2.10
2019-02-26T06:41:31.074Z,-1.90
2019-02-26T06:46:16.851Z,-1.70
2019-02-26T06:51:04.718Z,-1.10
2019-02-26T06:55:49.994Z,-0.80
2019-02-26T07:00:35.657Z,-0.90
2019-02-26T07:05:23.890Z,-0.90
2019-02-26T07:10:13.802Z,-1.00
2019-02-26T07:14:59.044Z,-0.80
2019-02-26T07:19:45.852Z,-0.50
2019-02-26T07:24:31.627Z,-0.40
2019-02-26T07:29:17.627Z,-0.20
2019-02-26T07:34:03.585Z,0.00
2019-02-26T07:38:51.510Z,0.10
2019-02-26T07:43:39.075Z,0.30
2019-02-26T07:48:26.310Z,0.90
2019-02-26T07:53:12.248Z,2.00
2019-02-26T07:57:58.610Z,3.00
2019-02-26T08:02:44.321Z,3.80
2019-02-26T08:07:30.810Z,4.70
2019-02-26T08:12:16.580Z,5.10
2019-02-26T08:17:04.023Z,5.30
2019-02-26T08:21:50.351Z,5.60
2019-02-26T08:26:38.611Z,6.10
2019-02-26T08:31:25.645Z,6.50
2019-02-26T08:36:13.588Z,6.20
2019-02-26T08:40:59.116Z,6.10
2019-02-26T08:45:44.855Z,6.40
2019-02-26T08:50:33.050Z,7.00
2019-02-26T08:55:20.899Z,7.90
2019-02-26T09:00:06.913Z,9.20
2019-02-26T09:04:52.596Z,9.60
2019-02-26T09:09:38.327Z,10.10
2019-02-26T09:14:24.184Z,10.30
2019-02-26T09:19:09.884Z,11.30
2019-02-26T09:23:56.994Z,11.50
2019-02-26T09:28:45.631Z,12.40
2019-02-26T09:33:33.022Z,11.90
2019-02-26T09:38:22.478Z,12.70
2019-02-26T09:43:06.245Z,13.70
2019-02-26T09:47:54.990Z,14.10
2019-02-26T09:52:39.590Z,14.90
2019-02-26T09:57:26.319Z,14.30
2019-02-26T10:02:13.022Z,15.10
2019-02-26T10:06:58.773Z,14.80
2019-02-26T10:11:46.926Z,15.00
2019-02-26T10:16:33.030Z,14.80
2019-02-26T10:21:20.504Z,15.10
2019-02-26T10:26:08.423Z,15.80
2019-02-26T10:30:55.065Z,15.60
2019-02-26T10:35:44.378Z,16.30
2019-02-26T10:40:35.096Z,16.90
2019-02-26T10:45:17.963Z,17.40
2019-02-26T10:50:03.896Z,16.90
2019-02-26T10:54:49.642Z,18.60
2019-02-26T10:59:35.535Z,18.10
2019-02-26T11:04:21.320Z,17.40
2019-02-26T11:09:14.403Z,16.10
2019-02-26T11:13:59.586Z,15.70
2019-02-26T11:18:47.530Z,15.40
2019-02-26T11:23:34.512Z,16.70
2019-02-26T11:28:20.775Z,17.80
2019-02-26T11:33:08.622Z,18.90
2019-02-26T11:37:55.415Z,21.00
2019-02-26T11:42:42.243Z,21.90
2019-02-26T11:47:29.004Z,22.40
2019-02-26T11:52:14.871Z,23.50
2019-02-26T11:57:00.675Z,23.80
2019-02-26T12:01:46.814Z,22.20
2019-02-26T12:06:32.636Z,22.70
2019-02-26T12:11:20.423Z,23.20
2019-02-26T12:16:06.060Z,24.80
2019-02-26T12:20:51.971Z,26.00
2019-02-26T12:25:38.085Z,25.40
2019-02-26T12:30:24.023Z,25.50
2019-02-26T12:35:12.155Z,27.20
2019-02-26T12:39:57.881Z,28.20
2019-02-26T12:44:45.455Z,27.10
2019-02-26T12:49:50.155Z,26.00
2019-02-26T12:54:37.785Z,27.90
2019-02-26T12:59:23.248Z,27.40
2019-02-26T13:04:09.614Z,27.30
2019-02-26T13:08:56.309Z,27.10
2019-02-26T13:13:42.034Z,26.80
2019-02-26T13:18:27.760Z,26.40
2019-02-26T13:23:19.530Z,27.30
2019-02-26T13:28:00.900Z,27.60
2019-02-26T13:33:05.346Z,27.10
2019-02-26T13:37:36.599Z,27.70
2019-02-26T13:42:21.458Z,27.30
2019-02-26T13:47:07.334Z,27.60
2019-02-26T13:51:53.123Z,26.50
2019-02-26T13:56:38.866Z,27.70
2019-02-26T14:01:24.727Z,29.20
2019-02-26T14:06:10.442Z,30.20
2019-02-26T14:10:56.265Z,30.30
2019-02-26T14:15:42.338Z,31.00
2019-02-26T14:20:28.369Z,32.60
2019-02-26T14:25:14.117Z,30.60
2019-02-26T14:29:59.877Z,31.40
2019-02-26T14:34:46.115Z,32.20
2019-02-26T14:39:31.888Z,32.70
2019-02-26T14:44:17.651Z,32.70
2019-02-26T14:49:03.325Z,32.40
2019-02-26T14:53:50.025Z,31.70
2019-02-26T14:58:36.106Z,31.60
2019-02-26T15:03:22.055Z,30.40
2019-02-26T15:08:09.610Z,30.80
2019-02-26T15:12:55.534Z,29.60
2019-02-26T15:17:41.470Z,29.80
2019-02-26T15:22:27.366Z,29.60
2019-02-26T15:27:13.451Z,28.60
2019-02-26T15:31:59.525Z,28.50
2019-02-26T15:36:45.318Z,28.50
2019-02-26T15:41:31.086Z,27.60
2019-02-26T15:46:16.868Z,27.40
2019-02-26T15:51:21.585Z,27.70
2019-02-26T15:56:07.343Z,27.30
2019-02-26T16:00:53.163Z,26.50
2019-02-26T16:05:38.982Z,26.40
2019-02-26T16:10:25.336Z,26.10
2019-02-26T16:15:12.273Z,25.10
2019-02-26T16:19:58.090Z,25.00
2019-02-26T16:24:43.787Z,24.40
2019-02-26T16:29:29.615Z,23.00
2019-02-26T16:34:17.499Z,20.00
2019-02-26T16:39:03.248Z,17.40
2019-02-26T16:43:51.641Z,15.40
2019-02-26T16:48:36.891Z,14.10
2019-02-26T16:53:22.805Z,13.50
2019-02-26T16:58:09.007Z,12.70
2019-02-26T17:02:54.989Z,12.00
2019-02-26T17:07:40.851Z,11.50
2019-02-26T17:12:29.049Z,11.00
2019-02-26T17:17:14.472Z,10.70
2019-02-26T17:22:01.850Z,10.40
2019-02-26T17:26:47.676Z,10.20
2019-02-26T17:31:33.443Z,9.80
2019-02-26T17:36:19.503Z,9.50
2019-02-26T17:41:05.627Z,9.30
2019-02-26T17:45:51.402Z,8.90
2019-02-26T17:50:37.491Z,8.50
2019-02-26T17:55:23.421Z,8.20
2019-02-26T18:00:12.066Z,7.90
2019-02-26T18:04:58.502Z,8.00
2019-02-26T18:09:45.337Z,7.90
2019-02-26T18:14:32.870Z,7.80
2019-02-26T18:19:18.462Z,7.80
2019-02-26T18:24:08.725Z,7.60
2019-02-26T18:28:54.250Z,7.30
2019-02-26T18:33:40.253Z,6.90
2019-02-26T18:38:26.220Z,6.70
2019-02-26T18:43:14.444Z,6.50
2019-02-26T18:47:59.580Z,6.20
2019-02-26T18:52:45.433Z,6.10
2019-02-26T18:57:31.283Z,6.00
2019-02-26T19:02:17.105Z,6.10
2019-02-26T19:07:03.203Z,6.00
2019-02-26T19:11:49.092Z,5.70
2019-02-26T19:16:34.956Z,5.90
2019-02-26T19:21:21.796Z,5.80
2019-02-26T19:26:08.519Z,5.70
2019-02-26T19:30:54.492Z,5.50
2019-02-26T19:35:40.630Z,5.30
2019-02-26T19:40:30.495Z,5.20
2019-02-26T19:45:16.600Z,5.20
2019-02-26T19:50:02.439Z,5.20
2019-02-26T19:54:48.314Z,5.10
2019-02-26T19:59:34.106Z,4.80
2019-02-26T20:04:20.039Z,5.00
2019-02-26T20:09:07.672Z,5.00
2019-02-26T20:13:53.589Z,4.90
2019-02-26T20:18:39.435Z,4.80
2019-02-26T20:23:25.303Z,5.00
2019-02-26T20:28:11.120Z,5.30
2019-02-26T20:32:57.049Z,6.20
2019-02-26T20:37:42.940Z,6.30
2019-02-26T20:42:28.938Z,6.20
2019-02-26T20:47:15.368Z,5.80
2019-02-26T20:52:01.462Z,5.70
2019-02-26T20:56:47.253Z,5.20
2019-02-26T21:01:33.263Z,4.90
2019-02-26T21:06:19.430Z,4.70
2019-02-26T21:11:05.416Z,4.40
2019-02-26T21:15:51.162Z,4.30
2019-02-26T21:20:41.149Z,4.00
2019-02-26T21:25:24.743Z,3.50
2019-02-26T21:30:12.690Z,3.40
2019-02-26T21:34:58.552Z,3.20
2019-02-26T21:39:44.402Z,3.10
2019-02-26T21:44:30.199Z,3.10
2019-02-26T21:49:17.038Z,3.00
2019-02-26T21:54:02.884Z,2.90
2019-02-26T21:58:48.646Z,3.50
2019-02-26T22:03:34.487Z,3.20
2019-02-26T22:08:20.321Z,3.30
2019-02-26T22:13:06.129Z,3.40
2019-02-26T22:17:53.104Z,3.60
2019-02-26T22:22:39.316Z,3.50
2019-02-26T22:27:25.101Z,3.30
2019-02-26T22:32:10.991Z,3.20
2019-02-26T22:36:56.782Z,3.20
2019-02-26T22:41:42.602Z,2.90
2019-02-26T22:46:28.490Z,2.80
2019-02-26T22:51:14.343Z,3.00
2019-02-26T22:56:00.149Z,2.90
2019-02-26T23:01:17.013Z,2.80
2019-02-26T23:06:03.367Z,2.60
2019-02-26T23:10:51.150Z,2.80
2019-02-26T23:15:36.852Z,3.10
2019-02-26T23:20:23.017Z,3.90
2019-02-26T23:25:09.273Z,3.80
2019-02-26T23:29:55.163Z,3.70
2019-02-26T23:34:42.173Z,3.80
2019-02-26T23:39:28.232Z,3.60
2019-02-26T23:44:17.822Z,3.40
2019-02-26T23:49:02.622Z,3.30
2019-02-26T23:53:48.453Z,3.20
2019-02-26T23:58:34.326Z,3.00
